Time;durP1;ratioP1;P1;durP2;ratioP2;P2;SDS_P1;SDS_P2;PMS_P1;PMS_P2;Temp;Humidity;BMP_temperature;BMP_pressure;BME280_temperature;BME280_humidity;BME280_pressure;Samples;Min_cycle;Max_cycle;Signal;HPM_P1;HPM_P2
2021/09/21 00:02:23;;;;;;;7.10;5.87;;;9.30;99.90;;;;;;5072906;28;20213;-50
2021/09/21 00:04:50;;;;;;;6.33;5.70;;;9.30;99.90;;;;;;5085582;28;20229;-52
2021/09/21 00:07:16;;;;;;;7.97;6.00;;;9.30;99.90;;;;;;5074586;28;20212;-53
2021/09/21 00:09:45;;;;;;;6.63;5.70;;;9.30;99.90;;;;;;5088349;28;20198;-49
2021/09/21 00:12:11;;;;;;;8.50;6.10;;;9.30;99.90;;;;;;5076156;28;20205;-51
2021/09/21 00:14:39;;;;;;;6.90;5.93;;;9.30;99.90;;;;;;5078533;28;20229;-49
2021/09/21 00:17:07;;;;;;;6.90;6.20;;;9.20;99.90;;;;;;5079027;28;20947;-49
2021/09/21 00:19:35;;;;;;;6.80;5.93;;;9.20;99.90;;;;;;5082147;28;20210;-51
2021/09/21 00:22:02;;;;;;;8.20;5.90;;;9.20;99.90;;;;;;5084836;28;20206;-54
2021/09/21 00:24:28;;;;;;;8.40;5.70;;;9.10;99.90;;;;;;5073579;28;20225;-54
2021/09/21 00:26:56;;;;;;;7.37;6.03;;;9.10;99.90;;;;;;5084627;28;20607;-52
2021/09/21 00:29:23;;;;;;;7.33;5.43;;;9.10;99.90;;;;;;5075443;28;20209;-50
2021/09/21 00:31:56;;;;;;;8.20;6.47;;;9.00;99.90;;;;;;5087535;28;20210;-50
2021/09/21 00:34:27;;;;;;;6.43;5.83;;;8.90;99.90;;;;;;5079529;28;20624;-53
2021/09/21 00:36:54;;;;;;;7.20;5.60;;;9.00;99.90;;;;;;5085793;28;20206;-48
2021/09/21 00:39:21;;;;;;;6.67;5.60;;;9.10;99.90;;;;;;5074522;28;20356;-56
2021/09/21 00:41:50;;;;;;;10.03;5.93;;;9.00;99.90;;;;;;5088237;28;20210;-50
2021/09/21 00:44:20;;;;;;;8.63;5.50;;;9.00;99.90;;;;;;5078774;28;20230;-56
2021/09/21 00:46:47;;;;;;;8.83;6.10;;;9.00;99.90;;;;;;5072785;28;20211;-52
2021/09/21 00:49:13;;;;;;;7.10;5.80;;;9.10;99.90;;;;;;5085721;28;20202;-50
2021/09/21 00:51:42;;;;;;;8.07;6.13;;;9.10;99.90;;;;;;5087512;28;20186;-57
2021/09/21 00:54:09;;;;;;;6.33;5.73;;;9.20;99.90;;;;;;5076745;28;20233;-52
2021/09/21 00:56:37;;;;;;;6.73;5.37;;;9.20;99.90;;;;;;5094803;28;20426;-55
2021/09/21 00:59:03;;;;;;;7.93;5.67;;;9.20;99.90;;;;;;5089537;28;20670;-59
2021/09/21 01:01:30;;;;;;;8.40;5.70;;;9.20;99.90;;;;;;5075323;28;23288;-55
2021/09/21 01:09:19;;;;;;;7.40;6.00;;;9.10;99.90;;;;;;5039544;28;20226;-49
2021/09/21 01:11:47;;;;;;;8.13;6.40;;;9.20;99.90;;;;;;5021930;28;20273;-53
2021/09/21 01:14:14;;;;;;;8.50;6.47;;;9.20;99.90;;;;;;5020204;28;20196;-52
2021/09/21 01:16:41;;;;;;;9.57;6.57;;;9.30;99.90;;;;;;5032731;28;20250;-49
2021/09/21 01:19:10;;;;;;;8.33;6.67;;;9.20;99.90;;;;;;5041811;28;20214;-54
2021/09/21 01:21:38;;;;;;;8.07;5.90;;;9.30;99.90;;;;;;5026041;28;20246;-50
2021/09/21 01:24:06;;;;;;;7.03;6.00;;;9.30;99.90;;;;;;5043082;28;20199;-48
2021/09/21 01:26:33;;;;;;;8.83;6.50;;;9.40;99.90;;;;;;5025338;28;20211;-52
2021/09/21 01:29:00;;;;;;;11.70;6.40;;;9.40;99.90;;;;;;5046905;28;20755;-57
2021/09/21 01:31:27;;;;;;;6.93;5.57;;;9.40;99.90;;;;;;5049566;28;20249;-50
2021/09/21 01:33:55;;;;;;;6.83;6.10;;;9.40;99.90;;;;;;5036714;28;20213;-48
2021/09/21 01:36:23;;;;;;;7.63;6.20;;;9.50;99.90;;;;;;5034191;28;20700;-55
2021/09/21 01:38:52;;;;;;;6.87;6.17;;;9.50;99.90;;;;;;5044929;28;20207;-51
2021/09/21 01:41:19;;;;;;;9.33;6.00;;;9.50;99.90;;;;;;5031700;28;20219;-56
2021/09/21 01:43:47;;;;;;;9.07;7.17;;;9.50;99.90;;;;;;5042846;28;20780;-49
2021/09/21 01:46:16;;;;;;;9.27;6.20;;;9.60;99.90;;;;;;5047962;28;20223;-55
2021/09/21 01:48:43;;;;;;;8.80;6.83;;;9.60;99.90;;;;;;5050683;28;21691;-53
2021/09/21 01:51:15;;;;;;;7.90;5.73;;;9.60;99.90;;;;;;5044922;28;20191;-56
2021/09/21 01:53:46;;;;;;;8.63;5.97;;;9.50;99.90;;;;;;5039270;28;20933;-56
2021/09/21 01:58:58;;;;;;;6.70;5.47;;;9.50;99.90;;;;;;5008733;28;20214;-52
2021/09/21 02:01:26;;;;;;;6.60;5.70;;;9.40;99.90;;;;;;5038759;28;20582;-51
2021/09/21 02:03:55;;;;;;;7.37;5.83;;;9.50;99.90;;;;;;5051086;28;20195;-55
2021/09/21 02:06:27;;;;;;;6.20;5.60;;;9.50;99.90;;;;;;5044373;28;20222;-54
2021/09/21 02:08:53;;;;;;;8.17;5.83;;;9.50;99.90;;;;;;5041288;28;20734;-53
2021/09/21 02:11:21;;;;;;;6.23;5.33;;;9.50;99.90;;;;;;5036527;28;20196;-53
2021/09/21 02:13:48;;;;;;;7.03;6.03;;;9.50;99.90;;;;;;5040319;28;20569;-48
2021/09/21 02:16:15;;;;;;;7.97;5.67;;;9.50;99.90;;;;;;5046076;28;20215;-55
2021/09/21 02:18:41;;;;;;;6.13;5.53;;;9.50;99.90;;;;;;5041428;28;20438;-51
2021/09/21 02:21:08;;;;;;;10.20;5.87;;;9.60;99.90;;;;;;5035946;28;20219;-58
2021/09/21 02:23:35;;;;;;;6.87;6.07;;;9.60;99.90;;;;;;5037763;28;20202;-57
2021/09/21 02:26:02;;;;;;;6.83;5.63;;;9.60;99.90;;;;;;5052066;28;20753;-54
2021/09/21 02:28:30;;;;;;;6.17;5.23;;;9.60;99.90;;;;;;5037435;28;20849;-48
2021/09/21 02:30:56;;;;;;;5.80;5.20;;;9.70;99.90;;;;;;5043467;28;20216;-49
2021/09/21 02:33:23;;;;;;;7.37;5.73;;;9.70;99.90;;;;;;5040974;28;20226;-49
2021/09/21 02:35:49;;;;;;;6.57;5.37;;;9.70;99.90;;;;;;5036370;28;20368;-56
2021/09/21 02:38:17;;;;;;;5.77;5.17;;;9.70;99.90;;;;;;5045400;28;20200;-55
2021/09/21 02:40:44;;;;;;;6.10;5.43;;;9.70;99.90;;;;;;5042427;28;20315;-55
2021/09/21 02:43:10;;;;;;;6.70;5.30;;;9.80;99.90;;;;;;5039701;28;20222;-52
2021/09/21 02:45:38;;;;;;;6.43;5.60;;;9.80;99.90;;;;;;5045490;28;20585;-55
2021/09/21 02:48:05;;;;;;;8.27;5.73;;;9.80;99.90;;;;;;5054001;28;20202;-49
2021/09/21 02:50:32;;;;;;;6.40;4.90;;;9.80;99.90;;;;;;5051100;28;20781;-54
2021/09/21 02:52:59;;;;;;;6.67;5.57;;;9.80;99.90;;;;;;5046901;28;20230;-53
2021/09/21 02:55:25;;;;;;;8.57;5.27;;;9.80;99.90;;;;;;5040500;28;20204;-56
2021/09/21 02:57:52;;;;;;;5.73;5.10;;;9.90;99.90;;;;;;5041246;28;20757;-47
2021/09/21 03:00:23;;;;;;;6.00;5.30;;;9.90;99.90;;;;;;5052632;28;20213;-58
2021/09/21 03:02:51;;;;;;;8.40;5.50;;;9.90;99.90;;;;;;5056351;28;20203;-49
2021/09/21 03:05:22;;;;;;;7.63;5.23;;;9.90;99.90;;;;;;5042874;28;20253;-48
2021/09/21 03:07:52;;;;;;;9.93;5.17;;;9.90;99.90;;;;;;5047815;28;20227;-55
2021/09/21 03:10:28;;;;;;;5.20;4.73;;;9.90;99.90;;;;;;5041790;28;20294;-52
2021/09/21 03:18:24;;;;;;;8.03;6.00;;;10.00;99.90;;;;;;5057667;28;20205;-47
2021/09/21 03:20:50;;;;;;;8.63;5.80;;;9.90;99.90;;;;;;5046779;28;20238;-56
2021/09/21 03:23:17;;;;;;;6.83;5.77;;;9.90;99.90;;;;;;5045176;28;20206;-48
2021/09/21 03:25:44;;;;;;;9.30;6.00;;;9.90;99.90;;;;;;5040358;28;20402;-52
2021/09/21 03:28:11;;;;;;;6.13;5.53;;;9.90;99.90;;;;;;5054251;28;20212;-53
2021/09/21 03:30:38;;;;;;;7.63;5.67;;;9.90;99.90;;;;;;5038861;28;20566;-55
2021/09/21 03:33:04;;;;;;;6.70;6.00;;;10.00;99.90;;;;;;5046885;28;20208;-49
2021/09/21 03:35:32;;;;;;;7.83;6.00;;;9.90;99.90;;;;;;5045238;28;20202;-53
2021/09/21 03:37:59;;;;;;;7.20;5.90;;;10.00;99.90;;;;;;5049722;28;20231;-57
2021/09/21 03:40:26;;;;;;;10.70;7.50;;;10.00;99.90;;;;;;5041135;28;20410;-50
2021/09/21 03:42:52;;;;;;;6.90;6.13;;;10.00;99.90;;;;;;5045200;28;20203;-52
2021/09/21 03:45:19;;;;;;;7.87;5.80;;;10.00;99.90;;;;;;5035591;28;20211;-50
2021/09/21 03:47:46;;;;;;;8.00;6.43;;;10.00;99.90;;;;;;5048328;28;20578;-50
2021/09/21 03:50:12;;;;;;;8.30;6.00;;;10.00;99.90;;;;;;5050881;28;20210;-52
2021/09/21 03:52:40;;;;;;;8.03;6.30;;;10.00;99.90;;;;;;5048372;28;20192;-57
2021/09/21 03:55:07;;;;;;;6.97;6.00;;;10.10;99.90;;;;;;5027339;28;20211;-50
2021/09/21 03:57:34;;;;;;;8.17;6.97;;;10.10;99.90;;;;;;5040959;28;20216;-55
2021/09/21 04:00:01;;;;;;;7.10;6.27;;;10.10;99.90;;;;;;5049712;28;20206;-51
2021/09/21 04:02:27;;;;;;;7.63;6.47;;;10.20;99.90;;;;;;5029974;28;20585;-57
2021/09/21 04:04:54;;;;;;;9.57;5.97;;;10.20;99.90;;;;;;5042264;28;20199;-51
2021/09/21 04:07:21;;;;;;;6.90;6.20;;;10.20;99.90;;;;;;5041127;28;20869;-53
2021/09/21 04:09:49;;;;;;;7.30;6.23;;;10.20;99.90;;;;;;5048206;28;20200;-52
2021/09/21 04:12:15;;;;;;;8.33;6.57;;;10.30;99.90;;;;;;5033099;28;20203;-51
2021/09/21 04:14:42;;;;;;;9.77;6.57;;;10.20;99.90;;;;;;5045523;28;20664;-48
2021/09/21 04:17:09;;;;;;;6.67;6.07;;;10.20;99.90;;;;;;5041922;28;20360;-51
2021/09/21 04:19:35;;;;;;;8.83;6.73;;;10.30;99.90;;;;;;5048862;28;20199;-50
2021/09/21 04:22:02;;;;;;;8.20;6.70;;;10.30;99.90;;;;;;5038807;28;20575;-51
2021/09/21 04:24:29;;;;;;;9.53;6.07;;;10.30;99.90;;;;;;5046526;28;20195;-49
2021/09/21 04:26:56;;;;;;;7.07;5.83;;;10.30;99.90;;;;;;5041762;28;20227;-47
2021/09/21 04:29:23;;;;;;;8.73;6.50;;;10.30;99.90;;;;;;5035027;28;20436;-53
2021/09/21 04:31:52;;;;;;;8.07;7.27;;;10.30;99.90;;;;;;5039912;28;20210;-51
2021/09/21 04:34:19;;;;;;;10.93;6.37;;;10.30;99.90;;;;;;5047904;28;20199;-51
2021/09/21 04:36:45;;;;;;;9.30;6.70;;;10.30;99.90;;;;;;5040425;28;20227;-48
2021/09/21 04:39:12;;;;;;;9.27;7.33;;;10.30;99.90;;;;;;5038100;28;20195;-51
2021/09/21 04:41:39;;;;;;;8.00;6.40;;;10.30;99.90;;;;;;5036781;28;20298;-51
2021/09/21 04:44:07;;;;;;;8.73;7.07;;;10.30;99.90;;;;;;5031589;28;20203;-55
2021/09/21 04:46:34;;;;;;;8.13;6.83;;;10.40;99.90;;;;;;5034812;28;20222;-50
2021/09/21 04:49:04;;;;;;;7.90;6.53;;;10.30;99.90;;;;;;5047393;28;20200;-58
2021/09/21 04:51:31;;;;;;;8.80;7.20;;;10.30;99.90;;;;;;5049251;28;20214;-49
2021/09/21 04:53:57;;;;;;;8.53;6.37;;;10.30;99.90;;;;;;5041403;28;20248;-56
2021/09/21 04:56:24;;;;;;;10.60;6.87;;;10.40;99.90;;;;;;5034469;28;23192;-51
2021/09/21 04:58:51;;;;;;;7.77;6.40;;;10.40;99.90;;;;;;5032968;28;20199;-58
2021/09/21 05:01:19;;;;;;;9.20;6.23;;;10.40;99.90;;;;;;5027561;28;20212;-51
2021/09/21 05:03:45;;;;;;;10.00;6.83;;;10.40;99.90;;;;;;5036629;28;20203;-56
2021/09/21 05:06:12;;;;;;;8.20;6.33;;;10.50;99.90;;;;;;5050190;28;20221;-55
2021/09/21 05:08:39;;;;;;;7.77;6.03;;;10.50;99.90;;;;;;5044096;28;20203;-53
2021/09/21 05:11:05;;;;;;;6.87;6.17;;;10.50;99.90;;;;;;5037185;28;20199;-52
2021/09/21 05:13:32;;;;;;;10.17;6.97;;;10.50;99.90;;;;;;5037742;28;20652;-56
2021/09/21 05:15:58;;;;;;;9.10;7.23;;;10.50;99.90;;;;;;5046208;28;20230;-49
2021/09/21 05:18:26;;;;;;;8.57;7.10;;;10.50;99.90;;;;;;5026068;28;20462;-57
2021/09/21 05:20:53;;;;;;;10.23;7.50;;;10.50;99.90;;;;;;5043032;28;20226;-51
2021/09/21 05:23:20;;;;;;;9.20;6.63;;;10.50;99.90;;;;;;5032705;28;20211;-56
2021/09/21 05:25:46;;;;;;;9.00;7.57;;;10.50;99.90;;;;;;5041704;28;20210;-50
2021/09/21 05:28:13;;;;;;;10.87;7.77;;;10.50;99.90;;;;;;5033550;28;20667;-54
2021/09/21 05:30:40;;;;;;;11.73;8.10;;;10.50;99.90;;;;;;5040877;28;20672;-53
2021/09/21 05:33:07;;;;;;;15.17;9.07;;;10.50;99.90;;;;;;5035805;28;20423;-58
2021/09/21 05:35:35;;;;;;;13.20;8.47;;;10.50;99.90;;;;;;5039561;28;20208;-50
2021/09/21 05:38:01;;;;;;;11.67;8.23;;;10.60;99.90;;;;;;5039796;28;20952;-50
2021/09/21 05:40:28;;;;;;;11.97;7.70;;;10.60;99.90;;;;;;5034674;28;20211;-51
2021/09/21 05:42:55;;;;;;;11.60;7.93;;;10.60;99.90;;;;;;5035037;28;20230;-52
2021/09/21 05:45:22;;;;;;;9.77;8.03;;;10.70;99.90;;;;;;5038977;28;20833;-49
2021/09/21 05:47:49;;;;;;;12.33;8.27;;;10.70;99.90;;;;;;5035903;28;20308;-49
2021/09/21 05:50:16;;;;;;;13.53;7.77;;;10.80;99.90;;;;;;5023986;28;20472;-54
2021/09/21 05:52:45;;;;;;;7.87;7.07;;;10.80;99.90;;;;;;5041439;28;20270;-50
2021/09/21 05:55:13;;;;;;;14.53;7.50;;;10.80;99.90;;;;;;5034779;28;20204;-52
2021/09/21 05:57:40;;;;;;;10.00;7.17;;;10.80;99.90;;;;;;5043030;28;20226;-52
2021/09/21 06:00:08;;;;;;;10.00;7.83;;;10.80;99.90;;;;;;5025953;28;20199;-54
2021/09/21 06:02:39;;;;;;;8.23;7.20;;;10.80;99.90;;;;;;5035556;28;20270;-46
2021/09/21 06:05:07;;;;;;;13.63;8.43;;;10.80;99.90;;;;;;5029476;28;20203;-50
2021/09/21 06:07:35;;;;;;;12.93;7.70;;;10.80;99.90;;;;;;5040251;28;20246;-52
2021/09/21 06:10:04;;;;;;;14.33;8.37;;;10.80;99.90;;;;;;5035940;28;20242;-50
2021/09/21 06:12:31;;;;;;;12.90;9.37;;;10.80;99.90;;;;;;5038611;28;20200;-54
2021/09/21 06:14:57;;;;;;;10.40;8.73;;;10.90;99.90;;;;;;5034470;28;20207;-55
2021/09/21 06:17:24;;;;;;;11.33;8.57;;;10.90;99.90;;;;;;5045480;28;20226;-47
2021/09/21 06:19:50;;;;;;;15.07;9.50;;;11.00;99.90;;;;;;5026352;28;20214;-51
2021/09/21 06:22:17;;;;;;;15.23;10.10;;;11.10;99.90;;;;;;5039508;28;20898;-55
2021/09/21 06:24:44;;;;;;;13.80;9.83;;;11.10;99.90;;;;;;5044567;28;20214;-52
2021/09/21 06:27:12;;;;;;;11.30;9.17;;;11.10;99.90;;;;;;5037103;28;20222;-54
2021/09/21 06:29:38;;;;;;;12.77;8.37;;;11.20;99.90;;;;;;5049468;28;20203;-53
2021/09/21 06:32:05;;;;;;;11.50;8.83;;;11.20;99.90;;;;;;5030252;28;20780;-52
2021/09/21 06:34:32;;;;;;;10.67;8.27;;;11.30;99.90;;;;;;5035746;28;20210;-53
2021/09/21 06:36:59;;;;;;;10.17;8.20;;;11.40;99.90;;;;;;5042318;28;20594;-53
2021/09/21 06:39:26;;;;;;;9.77;7.77;;;11.40;99.90;;;;;;5033885;28;20810;-52
2021/09/21 06:41:53;;;;;;;11.30;7.53;;;11.50;99.90;;;;;;5043631;28;20229;-55
2021/09/21 06:44:21;;;;;;;8.83;6.73;;;11.50;99.90;;;;;;5047042;28;20199;-55
2021/09/21 06:46:48;;;;;;;8.90;7.27;;;11.60;99.90;;;;;;5044400;28;20230;-56
2021/09/21 06:49:15;;;;;;;10.77;7.30;;;11.60;99.90;;;;;;5030065;28;20781;-54
2021/09/21 06:51:41;;;;;;;10.73;6.90;;;11.70;99.90;;;;;;5043112;28;20203;-57
2021/09/21 06:54:08;;;;;;;7.73;6.13;;;11.70;99.90;;;;;;5043368;28;20671;-51
2021/09/21 06:56:35;;;;;;;9.47;5.90;;;11.60;99.90;;;;;;5041050;28;20234;-54
2021/09/21 06:59:01;;;;;;;6.67;5.93;;;11.60;99.90;;;;;;5035720;28;20202;-56
2021/09/21 07:01:29;;;;;;;6.83;5.50;;;11.60;99.90;;;;;;5036785;28;20680;-48
2021/09/21 07:03:56;;;;;;;7.20;5.97;;;11.60;99.90;;;;;;5040953;28;20908;-55
2021/09/21 07:06:22;;;;;;;7.97;5.93;;;11.60;99.90;;;;;;5028412;28;20219;-54
2021/09/21 07:08:49;;;;;;;7.67;6.00;;;11.70;99.90;;;;;;5043418;28;20896;-57
2021/09/21 07:11:16;;;;;;;6.43;5.83;;;11.70;99.90;;;;;;5049450;28;20207;-54
2021/09/21 07:13:42;;;;;;;7.47;6.23;;;11.80;99.90;;;;;;5035080;28;20420;-53
2021/09/21 07:16:09;;;;;;;6.77;5.70;;;11.80;99.90;;;;;;5052357;28;20219;-55
2021/09/21 07:18:37;;;;;;;6.90;5.93;;;11.80;99.90;;;;;;5039599;28;20187;-56
2021/09/21 07:21:05;;;;;;;7.53;6.50;;;11.80;99.90;;;;;;5038470;28;20218;-53
2021/09/21 07:23:32;;;;;;;8.17;6.13;;;11.80;99.90;;;;;;5039786;28;20226;-57
2021/09/21 07:25:58;;;;;;;9.30;6.67;;;11.80;99.90;;;;;;5041000;28;20207;-50
2021/09/21 07:28:26;;;;;;;8.87;6.27;;;11.90;99.90;;;;;;5035536;28;20199;-54
2021/09/21 07:30:53;;;;;;;7.13;6.40;;;11.90;99.90;;;;;;5042759;28;20431;-51
2021/09/21 07:33:20;;;;;;;6.33;5.73;;;12.00;99.90;;;;;;5050150;28;20183;-49
2021/09/21 07:35:48;;;;;;;7.97;6.50;;;12.00;99.90;;;;;;5023775;28;20375;-57
2021/09/21 07:38:14;;;;;;;9.53;6.67;;;12.10;99.90;;;;;;5028693;28;20191;-56
2021/09/21 07:40:41;;;;;;;7.87;6.47;;;12.10;99.90;;;;;;5042239;28;21622;-53
2021/09/21 07:43:08;;;;;;;7.50;6.80;;;12.10;99.90;;;;;;5029372;28;20227;-52
2021/09/21 07:45:36;;;;;;;7.63;6.23;;;12.20;99.90;;;;;;5041439;28;20202;-55
2021/09/21 07:48:04;;;;;;;6.87;6.00;;;12.20;99.90;;;;;;5041009;28;20231;-52
2021/09/21 07:50:30;;;;;;;9.17;6.70;;;12.20;99.90;;;;;;5037623;28;20208;-53
2021/09/21 07:52:59;;;;;;;9.10;7.13;;;12.20;99.90;;;;;;5024505;28;20304;-55
2021/09/21 07:55:25;;;;;;;8.80;6.70;;;12.20;99.90;;;;;;5040031;28;20759;-53
2021/09/21 07:57:52;;;;;;;9.50;6.03;;;12.30;99.90;;;;;;5038421;28;20581;-52
2021/09/21 08:00:21;;;;;;;8.60;7.20;;;12.30;99.90;;;;;;5050066;28;20218;-51
2021/09/21 08:02:48;;;;;;;8.43;6.03;;;12.30;99.90;;;;;;5045206;28;20314;-51
2021/09/21 08:05:15;;;;;;;9.53;6.57;;;12.40;99.90;;;;;;5030735;28;20405;-54
2021/09/21 08:07:43;;;;;;;7.70;6.20;;;12.40;99.90;;;;;;5042216;28;20235;-54
2021/09/21 08:10:12;;;;;;;11.93;7.27;;;12.40;99.90;;;;;;5031392;28;20203;-50
2021/09/21 08:12:40;;;;;;;8.67;7.00;;;12.40;99.90;;;;;;5037444;28;20952;-52
2021/09/21 08:15:08;;;;;;;8.90;7.07;;;12.40;99.90;;;;;;5032261;28;20191;-53
2021/09/21 08:17:35;;;;;;;8.37;7.40;;;12.40;99.90;;;;;;5042404;28;20706;-51
2021/09/21 08:20:03;;;;;;;10.47;7.60;;;12.40;99.90;;;;;;5034136;28;20196;-48
2021/09/21 08:22:29;;;;;;;10.00;7.63;;;12.40;99.90;;;;;;5041849;28;20704;-52
2021/09/21 08:24:56;;;;;;;9.70;6.80;;;12.40;99.90;;;;;;5029425;28;20199;-53
2021/09/21 08:27:25;;;;;;;8.33;7.37;;;12.50;99.90;;;;;;5047418;28;20234;-50
2021/09/21 08:29:52;;;;;;;8.93;7.20;;;12.50;99.90;;;;;;5027892;28;20199;-52
2021/09/21 08:32:19;;;;;;;9.77;7.00;;;12.50;99.90;;;;;;5041798;28;20191;-50
2021/09/21 08:34:45;;;;;;;8.93;6.67;;;12.60;99.90;;;;;;5045328;28;20303;-53
2021/09/21 08:37:12;;;;;;;10.80;7.47;;;12.60;99.90;;;;;;5033447;28;20580;-53
2021/09/21 08:39:39;;;;;;;10.43;6.90;;;12.60;99.90;;;;;;5034148;28;20191;-50
2021/09/21 08:42:06;;;;;;;9.10;7.70;;;12.60;99.90;;;;;;5034626;28;20207;-51
2021/09/21 08:44:36;;;;;;;8.40;7.13;;;12.60;99.90;;;;;;5028764;28;20200;-52
2021/09/21 08:47:04;;;;;;;8.10;6.53;;;12.70;99.90;;;;;;5049528;28;21094;-51
2021/09/21 08:49:31;;;;;;;13.10;7.87;;;12.70;99.90;;;;;;5050025;28;20211;-53
2021/09/21 08:51:59;;;;;;;8.30;6.60;;;12.70;99.90;;;;;;5038319;28;20207;-52
2021/09/21 08:54:26;;;;;;;7.70;6.60;;;12.80;99.90;;;;;;5031028;28;20211;-52
2021/09/21 08:56:54;;;;;;;9.30;6.97;;;12.70;99.90;;;;;;5041423;28;20321;-53
2021/09/21 08:59:30;;;;;;;11.77;7.87;;;12.80;99.90;;;;;;5037022;28;20205;-56
2021/09/21 09:02:04;;;;;;;7.50;6.73;;;12.80;99.90;;;;;;5034079;28;20206;-53
2021/09/21 09:04:31;;;;;;;8.33;7.00;;;12.80;99.90;;;;;;5038785;28;20190;-52
2021/09/21 09:06:59;;;;;;;12.83;8.73;;;12.80;99.90;;;;;;5033556;28;20226;-51
2021/09/21 09:09:30;;;;;;;11.37;8.77;;;12.80;99.90;;;;;;5035150;28;20219;-54
2021/09/21 09:12:00;;;;;;;12.30;8.83;;;12.70;99.90;;;;;;5037050;28;20210;-51
2021/09/21 09:14:29;;;;;;;9.90;6.80;;;12.80;99.90;;;;;;5038311;28;20427;-53
2021/09/21 09:16:59;;;;;;;7.90;6.50;;;12.80;99.90;;;;;;5036825;28;20254;-55
2021/09/21 09:19:31;;;;;;;8.73;7.30;;;12.80;99.90;;;;;;5033087;28;20211;-55
2021/09/21 09:22:05;;;;;;;12.77;7.63;;;12.80;99.90;;;;;;5048158;28;20209;-58
2021/09/21 09:24:32;;;;;;;8.67;6.73;;;12.90;99.90;;;;;;5037186;28;20195;-50
2021/09/21 09:26:59;;;;;;;9.60;6.83;;;12.90;99.90;;;;;;5034797;28;20234;-50
2021/09/21 09:29:25;;;;;;;8.27;6.77;;;12.90;99.90;;;;;;5037920;28;20200;-52
2021/09/21 09:32:02;;;;;;;10.30;7.37;;;12.90;99.90;;;;;;5043317;28;20218;-55
2021/09/21 09:34:29;;;;;;;7.73;6.53;;;13.00;99.90;;;;;;5047077;28;20202;-51
2021/09/21 09:36:58;;;;;;;10.67;7.70;;;13.00;99.90;;;;;;5038906;28;20234;-55
2021/09/21 09:39:29;;;;;;;8.57;6.90;;;13.00;99.90;;;;;;5035749;28;20520;-49
2021/09/21 09:41:57;;;;;;;10.73;8.00;;;;;;;;;;5032066;28;20203;-57
2021/09/21 09:44:25;;;;;;;11.07;7.30;;;13.20;99.90;;;;;;5036671;28;20241;-50
2021/09/21 09:46:54;;;;;;;9.40;6.90;;;13.30;99.90;;;;;;5036040;28;20223;-56
2021/09/21 09:49:25;;;;;;;7.23;6.10;;;13.40;99.90;;;;;;5034200;28;20200;-51
2021/09/21 09:51:54;;;;;;;11.13;6.93;;;13.40;99.90;;;;;;5036877;28;20203;-54
2021/09/21 09:54:21;;;;;;;8.47;6.90;;;13.50;99.90;;;;;;5032299;28;20709;-52
2021/09/21 09:56:48;;;;;;;8.50;7.40;;;13.60;99.90;;;;;;5034359;28;20289;-53
2021/09/21 09:59:17;;;;;;;9.57;6.97;;;13.70;99.90;;;;;;5036996;28;20203;-50
2021/09/21 10:01:45;;;;;;;11.53;6.90;;;13.80;99.90;;;;;;5043031;28;20225;-50
2021/09/21 10:04:13;;;;;;;8.97;6.40;;;13.80;99.90;;;;;;5038603;28;20222;-51
2021/09/21 10:06:41;;;;;;;10.30;7.43;;;13.90;99.90;;;;;;5043160;28;20225;-55
2021/09/21 10:09:09;;;;;;;8.17;7.23;;;14.00;99.90;;;;;;5026503;28;20278;-55
2021/09/21 10:11:37;;;;;;;6.70;5.37;;;14.10;99.90;;;;;;5034823;28;20200;-51
2021/09/21 10:14:05;;;;;;;7.37;6.03;;;14.10;99.90;;;;;;5038711;28;20206;-52
2021/09/21 10:16:32;;;;;;;6.97;6.00;;;14.10;99.90;;;;;;5042930;28;20223;-52
2021/09/21 10:19:01;;;;;;;6.47;5.87;;;14.10;99.90;;;;;;5036864;28;20283;-54
2021/09/21 10:21:33;;;;;;;8.33;6.20;;;14.20;99.90;;;;;;5043289;28;20660;-55
2021/09/21 10:24:04;;;;;;;7.97;6.23;;;14.30;99.90;;;;;;5041873;28;20229;-50
2021/09/21 10:26:32;;;;;;;6.07;5.37;;;14.30;99.90;;;;;;5041512;28;20582;-50
2021/09/21 10:28:59;;;;;;;8.03;6.20;;;14.40;99.90;;;;;;5048905;28;20190;-54
2021/09/21 10:31:29;;;;;;;9.77;5.67;;;14.40;99.90;;;;;;5037448;28;20424;-57
2021/09/21 10:33:56;;;;;;;6.33;5.30;;;14.40;99.90;;;;;;5043453;28;20715;-53
2021/09/21 10:36:25;;;;;;;5.37;4.63;;;14.40;99.90;;;;;;5038544;28;20340;-53
2021/09/21 10:38:57;;;;;;;6.90;4.93;;;14.40;99.90;;;;;;5063979;28;20553;-52
2021/09/21 10:41:26;;;;;;;7.47;5.33;;;14.50;99.90;;;;;;5030761;28;20676;-54
2021/09/21 10:44:05;;;;;;;4.73;4.30;;;14.50;99.90;;;;;;5050490;28;20219;-57
2021/09/21 10:46:47;;;;;;;6.23;5.20;;;14.60;99.90;;;;;;5048361;28;20218;-52
2021/09/21 10:49:28;;;;;;;6.30;5.10;;;14.60;99.90;;;;;;5025766;28;20211;-50
2021/09/21 10:51:58;;;;;;;5.57;4.53;;;14.60;99.90;;;;;;5047090;28;20198;-58
2021/09/21 10:54:34;;;;;;;7.50;4.57;;;14.70;99.90;;;;;;5037795;28;20280;-53
2021/09/21 10:57:11;;;;;;;5.07;4.47;;;14.70;99.90;;;;;;5031526;28;20223;-57
2021/09/21 10:59:39;;;;;;;5.63;4.87;;;14.70;99.90;;;;;;5039483;28;20210;-51
2021/09/21 11:02:07;;;;;;;5.40;4.80;;;14.70;99.90;;;;;;5039293;28;20203;-57
2021/09/21 11:04:42;;;;;;;5.30;4.53;;;14.80;99.90;;;;;;5042373;28;20227;-50
2021/09/21 11:07:12;;;;;;;6.63;4.70;;;14.80;99.90;;;;;;5039821;28;20250;-49
2021/09/21 11:09:38;;;;;;;5.47;4.97;;;14.80;99.90;;;;;;5045596;28;20203;-47
2021/09/21 11:12:09;;;;;;;5.17;4.67;;;14.80;99.90;;;;;;5023900;28;20207;-52
2021/09/21 11:14:37;;;;;;;8.80;4.47;;;14.90;99.90;;;;;;5044293;28;20206;-52
2021/09/21 11:17:04;;;;;;;6.70;4.10;;;14.80;99.90;;;;;;5042797;28;20613;-54
2021/09/21 11:19:32;;;;;;;5.27;4.03;;;14.80;99.90;;;;;;5040052;28;20195;-50
2021/09/21 11:22:00;;;;;;;4.97;3.80;;;14.80;99.90;;;;;;5041116;28;20204;-51
2021/09/21 11:24:27;;;;;;;5.90;3.83;;;14.70;99.90;;;;;;5047578;28;20225;-59
2021/09/21 11:26:58;;;;;;;7.63;4.77;;;14.70;99.90;;;;;;5037376;28;20218;-46
2021/09/21 11:29:26;;;;;;;6.00;4.20;;;14.70;99.90;;;;;;5029368;28;20211;-58
2021/09/21 11:31:53;;;;;;;6.03;4.70;;;14.70;99.90;;;;;;5045190;28;20203;-50
2021/09/21 11:34:21;;;;;;;4.93;4.43;;;14.60;99.90;;;;;;5051008;28;20273;-49
2021/09/21 11:36:50;;;;;;;4.97;4.47;;;14.50;99.90;;;;;;5032842;28;21064;-51
2021/09/21 11:39:17;;;;;;;5.23;4.70;;;14.60;99.90;;;;;;5046060;28;20203;-52
2021/09/21 11:41:44;;;;;;;6.43;4.50;;;14.60;99.90;;;;;;5041716;28;20816;-57
2021/09/21 11:44:11;;;;;;;5.97;4.70;;;14.60;99.90;;;;;;5048452;28;20211;-53
2021/09/21 11:46:39;;;;;;;8.10;4.93;;;14.60;99.90;;;;;;5042531;28;20238;-52
2021/09/21 11:49:05;;;;;;;7.77;4.40;;;14.60;99.90;;;;;;5039382;28;20199;-52
2021/09/21 11:51:35;;;;;;;6.07;4.00;;;14.70;99.90;;;;;;5045763;28;20561;-54
2021/09/21 11:54:01;;;;;;;8.13;5.30;;;14.70;99.90;;;;;;5038524;28;20288;-49
2021/09/21 11:56:28;;;;;;;5.33;4.57;;;14.80;99.90;;;;;;5039211;28;20219;-51
2021/09/21 11:58:58;;;;;;;5.23;4.73;;;14.80;99.90;;;;;;5027220;28;20804;-50
2021/09/21 12:01:25;;;;;;;5.27;4.73;;;14.90;99.90;;;;;;5036222;28;20250;-55
2021/09/21 12:03:54;;;;;;;4.17;3.87;;;14.90;99.90;;;;;;5040885;28;20223;-49
2021/09/21 12:06:31;;;;;;;6.90;4.30;;;14.90;99.90;;;;;;5037842;28;20231;-50
2021/09/21 12:09:00;;;;;;;5.93;4.43;;;15.00;99.90;;;;;;5032536;28;20218;-52
2021/09/21 12:11:27;;;;;;;6.90;4.27;;;15.00;99.90;;;;;;5047234;28;20252;-50
2021/09/21 12:13:54;;;;;;;7.93;3.93;;;15.00;99.90;;;;;;5030474;28;20206;-51
2021/09/21 12:16:21;;;;;;;4.70;4.30;;;15.00;99.90;;;;;;5040044;28;20226;-52
2021/09/21 12:18:48;;;;;;;5.63;4.20;;;15.10;99.90;;;;;;5040956;28;20200;-53
2021/09/21 12:21:18;;;;;;;5.37;4.30;;;15.20;99.90;;;;;;5040825;28;20207;-53
2021/09/21 12:23:47;;;;;;;4.43;4.03;;;15.30;99.90;;;;;;5039906;28;20212;-49
2021/09/21 12:26:16;;;;;;;6.00;4.60;;;15.30;99.90;;;;;;5041357;28;20223;-50
2021/09/21 12:28:45;;;;;;;6.80;4.83;;;15.40;99.90;;;;;;5021386;28;20199;-51
2021/09/21 12:31:15;;;;;;;6.77;4.97;;;15.30;99.90;;;;;;5037380;28;20206;-53
2021/09/21 12:33:43;;;;;;;7.53;4.57;;;15.30;99.90;;;;;;5041817;28;20834;-50
2021/09/21 12:36:21;;;;;;;6.50;5.03;;;15.30;99.90;;;;;;5044032;28;20318;-47
2021/09/21 12:38:57;;;;;;;5.60;4.97;;;15.30;99.90;;;;;;5041244;28;20234;-47
2021/09/21 12:41:25;;;;;;;7.17;5.57;;;15.30;99.90;;;;;;5035213;28;20207;-56
2021/09/21 12:43:54;;;;;;;7.40;5.33;;;15.30;99.90;;;;;;5027877;28;20249;-51
2021/09/21 12:46:22;;;;;;;6.57;5.80;;;15.40;99.90;;;;;;5051938;28;20247;-55
2021/09/21 12:48:48;;;;;;;6.23;4.97;;;15.50;99.90;;;;;;5031005;28;20203;-47
2021/09/21 12:51:15;;;;;;;6.50;5.57;;;15.50;99.90;;;;;;5045490;28;20702;-49
2021/09/21 12:53:43;;;;;;;8.27;5.60;;;15.60;99.90;;;;;;5045307;28;20191;-52
2021/09/21 12:56:12;;;;;;;11.83;6.07;;;15.70;99.90;;;;;;5051690;28;20223;-49
2021/09/21 12:58:42;;;;;;;7.13;5.97;;;15.80;99.90;;;;;;5032899;28;20668;-57
2021/09/21 13:01:09;;;;;;;10.13;6.00;;;15.90;99.90;;;;;;5048378;28;20203;-48
2021/09/21 13:03:37;;;;;;;7.20;5.90;;;16.00;99.90;;;;;;5033849;28;20203;-51
2021/09/21 13:06:04;;;;;;;9.70;6.23;;;16.10;99.90;;;;;;5051025;28;20274;-50